New Castle, Kentucky
Current Conditions -  °F | °C
As of 4:53 AM on Sunday 25 Jan 2015 (Local Time) from KFFT Reporting Station
Clear Clear  
Wind Chill: -1°   Ceiling: Unl
Heat Index:   Visibility: 10mi
Dew Point: -1°   Wind: 10mph
Humidity: 76%   Direction: 210°SSW
Pressure: 29.76"   Gusts: NA
Location:  38.43°N, 85.17°W
Report Text: KFFT 250953Z AUTO 21009KT 10SM CLR 03/M01 A2976 RMK AO2 SLP083 T00281011
Loading
Personal Weather Stations






























Interactive Weather Map New forecast layout! Learn more

10-Day Weather Forecast

Advertisements
Track Severe Weather on mobile